createdAt,value
2018-05-23T00:00:40.341Z,74.50
2018-05-23T00:03:07.867Z,74.50
2018-05-23T00:05:35.382Z,74.80
2018-05-23T00:08:02.902Z,75.10
2018-05-23T00:10:31.185Z,75.10
2018-05-23T00:12:59.465Z,75.70
2018-05-23T00:15:27.742Z,76.20
2018-05-23T00:17:56.025Z,76.70
2018-05-23T00:20:23.533Z,76.60
2018-05-23T00:22:51.050Z,76.90
2018-05-23T00:25:18.565Z,76.90
2018-05-23T00:27:46.853Z,78.10
2018-05-23T00:30:15.133Z,79.50
2018-05-23T00:32:43.411Z,80.10
2018-05-23T00:35:11.686Z,80.60
2018-05-23T00:37:39.968Z,81.20
2018-05-23T00:40:08.245Z,81.80
2018-05-23T00:42:36.529Z,81.90
2018-05-23T00:45:04.813Z,82.20
2018-05-23T00:47:32.333Z,82.20
2018-05-23T00:50:01.359Z,82.10
2018-05-23T00:52:29.638Z,81.90
2018-05-23T00:55:09.790Z,82.40
2018-05-23T00:57:38.069Z,82.40
2018-05-23T01:00:05.586Z,82.40
2018-05-23T01:02:33.103Z,82.40
2018-05-23T01:05:00.615Z,82.80
2018-05-23T01:07:29.641Z,83.20
2018-05-23T01:09:57.153Z,83.10
2018-05-23T01:12:24.677Z,83.10
2018-05-23T01:14:52.197Z,83.40
2018-05-23T01:17:20.486Z,83.80
2018-05-23T01:19:48.762Z,83.90
2018-05-23T01:22:17.053Z,84.00
2018-05-23T01:24:44.572Z,84.00
2018-05-23T01:27:12.850Z,84.70
2018-05-23T01:29:40.377Z,84.70
2018-05-23T01:32:07.892Z,85.20
2018-05-23T01:34:36.173Z,86.30
2018-05-23T01:37:03.695Z,86.30
2018-05-23T01:39:31.233Z,86.70
2018-05-23T01:41:58.750Z,86.40
2018-05-23T01:44:26.266Z,85.80
2018-05-23T01:46:53.785Z,85.40
2018-05-23T01:49:26.325Z,85.20
2018-05-23T01:51:54.615Z,85.10
2018-05-23T01:54:22.906Z,84.40
2018-05-23T01:56:50.417Z,84.20
2018-05-23T01:59:17.938Z,85.10
2018-05-23T02:01:45.465Z,84.60
2018-05-23T02:04:13.777Z,85.00
2018-05-23T02:06:41.291Z,84.90
2018-05-23T02:09:09.577Z,85.10
2018-05-23T02:11:37.857Z,85.20
2018-05-23T02:14:06.148Z,85.20
2018-05-23T02:16:33.661Z,85.20
2018-05-23T02:19:01.182Z,84.60
2018-05-23T02:21:28.697Z,84.00
2018-05-23T02:23:56.988Z,82.80
2018-05-23T02:26:25.273Z,82.90
2018-05-23T02:28:52.825Z,82.80
2018-05-23T02:31:21.110Z,82.90
2018-05-23T02:33:48.622Z,82.00
2018-05-23T02:36:16.145Z,82.00
2018-05-23T02:38:43.661Z,82.00
2018-05-23T02:41:11.942Z,82.50
2018-05-23T02:43:40.230Z,81.80
2018-05-23T02:46:08.506Z,81.80
2018-05-23T02:48:36.811Z,81.90
2018-05-23T02:51:04.331Z,81.90
2018-05-23T02:53:32.642Z,81.90
2018-05-23T02:56:00.158Z,81.90
2018-05-23T02:58:28.433Z,83.20
2018-05-23T03:00:56.714Z,83.70
2018-05-23T03:03:24.221Z,83.60
2018-05-23T03:05:51.749Z,84.30
2018-05-23T03:08:20.046Z,83.90
2018-05-23T03:10:47.565Z,83.80
2018-05-23T03:13:15.083Z,83.30
2018-05-23T03:15:42.601Z,83.00
2018-05-23T03:18:10.898Z,82.70
2018-05-23T03:20:38.422Z,82.70
2018-05-23T03:23:06.709Z,84.10
2018-05-23T03:25:35.002Z,84.70
2018-05-23T03:28:02.529Z,84.70
2018-05-23T03:30:30.821Z,84.40
2018-05-23T03:32:59.106Z,84.60
2018-05-23T03:35:27.390Z,85.00
2018-05-23T03:37:54.905Z,84.90
2018-05-23T03:40:22.437Z,85.50
2018-05-23T03:42:49.957Z,85.60
2018-05-23T03:45:18.237Z,85.60
2018-05-23T03:47:45.759Z,85.60
2018-05-23T03:50:13.273Z,85.60
2018-05-23T03:52:40.793Z,86.00
2018-05-23T03:55:09.075Z,87.20
2018-05-23T03:57:37.366Z,86.90
2018-05-23T04:00:16.750Z,86.90
2018-05-23T04:02:56.185Z,87.30
2018-05-23T04:05:35.535Z,88.00
2018-05-23T04:08:03.066Z,86.90
2018-05-23T04:10:30.589Z,86.90
2018-05-23T04:12:58.868Z,87.80
2018-05-23T04:15:27.306Z,87.80
2018-05-23T04:17:54.782Z,88.00
2018-05-23T04:20:23.822Z,88.00
2018-05-23T04:22:51.339Z,87.90
2018-05-23T04:25:19.621Z,88.40
2018-05-23T04:27:47.906Z,88.90
2018-05-23T04:30:16.184Z,88.70
2018-05-23T04:32:44.478Z,88.70
2018-05-23T04:35:12.005Z,88.70
2018-05-23T04:37:40.306Z,89.20
2018-05-23T04:40:07.998Z,89.10
2018-05-23T04:42:35.517Z,88.70
2018-05-23T04:45:03.809Z,88.80
2018-05-23T04:47:31.323Z,88.80
2018-05-23T04:49:58.918Z,88.90
2018-05-23T04:52:27.208Z,89.60
2018-05-23T04:54:54.730Z,89.60
2018-05-23T04:57:23.025Z,90.30
2018-05-23T04:59:51.317Z,90.40
2018-05-23T05:02:18.833Z,90.40
2018-05-23T05:04:46.375Z,90.50
2018-05-23T05:07:13.893Z,90.80
2018-05-23T05:09:41.442Z,90.90
2018-05-23T05:12:09.744Z,90.80
2018-05-23T05:14:37.253Z,90.80
2018-05-23T05:17:04.777Z,90.70
2018-05-23T05:19:32.297Z,90.50
2018-05-23T05:22:00.577Z,90.30
2018-05-23T05:24:28.864Z,90.40
2018-05-23T05:26:56.373Z,90.40
2018-05-23T05:29:23.902Z,90.60
2018-05-23T05:31:51.447Z,90.60
2018-05-23T05:34:18.952Z,90.70
2018-05-23T05:36:46.469Z,90.80
2018-05-23T05:39:13.994Z,90.60
2018-05-23T05:41:41.533Z,90.40
2018-05-23T05:44:09.050Z,90.50
2018-05-23T05:46:36.565Z,90.30
2018-05-23T05:49:04.860Z,90.10
2018-05-23T05:51:33.137Z,90.10
2018-05-23T05:54:01.414Z,90.20
2018-05-23T05:56:28.948Z,90.10
2018-05-23T05:58:56.469Z,90.40
2018-05-23T06:01:24.008Z,90.30
2018-05-23T06:03:51.526Z,90.00
2018-05-23T06:06:19.045Z,90.00
2018-05-23T06:08:46.571Z,90.40
2018-05-23T06:11:14.086Z,89.10
2018-05-23T06:13:41.603Z,87.40
2018-05-23T06:16:09.125Z,87.40
2018-05-23T06:18:37.406Z,86.20
2018-05-23T06:21:05.702Z,84.80
2018-05-23T06:23:33.217Z,84.80
2018-05-23T06:26:02.238Z,84.30
2018-05-23T06:28:30.530Z,83.80
2018-05-23T06:30:58.042Z,83.80
2018-05-23T06:33:25.599Z,84.50
2018-05-23T06:35:53.886Z,83.50
2018-05-23T06:38:22.913Z,81.80
2018-05-23T06:40:51.197Z,81.60
2018-05-23T06:43:18.718Z,81.60
2018-05-23T06:45:47.740Z,80.60
2018-05-23T06:48:16.034Z,81.40
2018-05-23T06:50:43.549Z,81.30
2018-05-23T06:53:11.081Z,81.40
2018-05-23T06:55:38.691Z,82.00
2018-05-23T06:58:06.135Z,81.70
2018-05-23T07:00:33.654Z,80.80
2018-05-23T07:03:01.173Z,80.60
2018-05-23T07:05:29.454Z,80.60
2018-05-23T07:07:56.965Z,80.60
2018-05-23T07:10:24.488Z,81.30
2018-05-23T07:12:52.004Z,81.60
2018-05-23T07:15:20.300Z,80.80
2018-05-23T07:17:47.883Z,80.60
2018-05-23T07:20:16.117Z,81.00
2018-05-23T07:22:44.413Z,81.00
2018-05-23T07:25:12.693Z,81.10
2018-05-23T07:27:40.218Z,81.00
2018-05-23T07:30:07.739Z,80.90
2018-05-23T07:32:35.258Z,81.20
2018-05-23T07:35:03.542Z,79.90
2018-05-23T07:37:31.842Z,79.40
2018-05-23T07:39:59.365Z,79.30
2018-05-23T07:42:27.653Z,79.20
2018-05-23T07:44:55.941Z,80.60
2018-05-23T07:47:23.453Z,80.60
2018-05-23T07:49:50.979Z,80.40
2018-05-23T07:52:18.499Z,79.70
2018-05-23T07:54:46.791Z,80.30
2018-05-23T07:57:14.301Z,80.20
2018-05-23T07:59:41.822Z,73.20
2018-05-23T08:02:09.341Z,73.20
2018-05-23T08:04:36.862Z,71.80
2018-05-23T08:07:04.373Z,72.90
2018-05-23T08:09:32.648Z,72.30
2018-05-23T08:12:00.937Z,70.00
2018-05-23T08:14:28.466Z,69.80
2018-05-23T08:16:55.985Z,70.90
2018-05-23T08:19:23.497Z,70.70
2018-05-23T08:21:51.779Z,67.80
2018-05-23T08:24:20.129Z,67.00
2018-05-23T08:26:47.590Z,67.00
2018-05-23T08:29:15.110Z,66.80
2018-05-23T08:31:42.629Z,66.50
2018-05-23T08:34:10.925Z,67.00
2018-05-23T08:36:38.439Z,67.00
2018-05-23T08:39:05.950Z,69.30
2018-05-23T08:41:33.470Z,68.50
2018-05-23T08:57:03.485Z,63.60
2018-05-23T08:59:31.781Z,63.20
2018-05-23T09:01:59.305Z,63.20
2018-05-23T09:04:26.828Z,60.30
2018-05-23T09:06:54.350Z,62.50
2018-05-23T09:09:21.918Z,63.50
2018-05-23T09:11:49.398Z,62.20
2018-05-23T09:14:16.917Z,59.40
2018-05-23T09:16:45.234Z,61.00
2018-05-23T09:19:12.745Z,61.00
2018-05-23T09:21:41.029Z,60.10
2018-05-23T09:24:09.322Z,59.90
2018-05-23T09:26:36.860Z,59.80
2018-05-23T09:29:05.134Z,61.80
2018-05-23T09:31:33.410Z,59.40
2018-05-23T09:34:01.698Z,59.00
2018-05-23T09:36:29.973Z,59.10
2018-05-23T09:38:58.253Z,57.80
2018-05-23T09:41:26.534Z,58.30
2018-05-23T09:43:54.813Z,57.70
2018-05-23T09:46:22.330Z,57.60
2018-05-23T09:48:49.845Z,57.10
2018-05-23T09:51:17.381Z,57.30
2018-05-23T09:53:45.673Z,56.50
2018-05-23T09:56:13.185Z,56.50
2018-05-23T09:58:40.693Z,56.70
2018-05-23T10:01:08.230Z,55.50
2018-05-23T10:03:36.520Z,55.60
2018-05-23T10:06:04.053Z,55.50
2018-05-23T10:08:31.583Z,54.60
2018-05-23T10:10:59.094Z,54.60
2018-05-23T10:13:26.614Z,55.10
2018-05-23T10:15:54.124Z,56.10
2018-05-23T10:18:21.633Z,55.00
2018-05-23T10:20:49.144Z,52.80
2018-05-23T10:23:16.653Z,53.10
2018-05-23T10:25:44.174Z,51.90
2018-05-23T10:28:11.681Z,53.10
2018-05-23T10:30:39.190Z,52.90
2018-05-23T10:33:06.697Z,52.90
2018-05-23T10:35:34.975Z,53.10
2018-05-23T10:38:02.502Z,52.80
2018-05-23T10:40:30.025Z,53.20
2018-05-23T10:42:57.536Z,53.30
2018-05-23T10:45:25.044Z,51.10
2018-05-23T10:47:52.557Z,50.20
2018-05-23T10:50:20.065Z,51.00
2018-05-23T10:52:47.573Z,51.30
2018-05-23T10:55:15.090Z,51.10
2018-05-23T10:57:42.598Z,49.80
2018-05-23T11:00:10.899Z,50.40
2018-05-23T11:02:38.429Z,50.30
2018-05-23T11:05:05.931Z,49.40
2018-05-23T11:07:33.467Z,47.70
2018-05-23T11:10:01.741Z,48.80
2018-05-23T11:12:30.015Z,49.00
2018-05-23T11:14:58.358Z,46.80
2018-05-23T11:17:25.853Z,46.80
2018-05-23T11:19:54.123Z,45.50
2018-05-23T11:22:22.445Z,45.60
2018-05-23T11:24:49.975Z,45.60
2018-05-23T11:27:18.246Z,47.20
2018-05-23T11:29:46.534Z,48.20
2018-05-23T11:32:14.809Z,45.90
2018-05-23T11:34:42.321Z,45.90
2018-05-23T11:37:09.908Z,46.60
2018-05-23T11:39:37.366Z,46.30
2018-05-23T11:42:05.637Z,44.80
2018-05-23T11:44:33.923Z,44.40
2018-05-23T11:47:02.217Z,44.70
2018-05-23T11:49:29.725Z,44.60
2018-05-23T11:51:57.235Z,44.90
2018-05-23T11:54:24.766Z,46.60
2018-05-23T11:56:53.070Z,46.50
2018-05-23T11:59:20.574Z,46.40
2018-05-23T12:01:48.151Z,44.90
2018-05-23T12:04:15.610Z,44.10
2018-05-23T12:06:43.115Z,43.90
2018-05-23T12:09:10.627Z,44.70
2018-05-23T12:11:38.137Z,45.50
2018-05-23T12:14:05.682Z,45.30
2018-05-23T12:16:33.209Z,45.50
2018-05-23T12:19:00.721Z,45.90
2018-05-23T12:21:28.274Z,46.30
2018-05-23T12:23:55.781Z,46.80
2018-05-23T12:26:23.494Z,47.60
2018-05-23T12:28:51.071Z,48.40
2018-05-23T12:31:18.590Z,49.20
2018-05-23T12:33:46.893Z,49.90
2018-05-23T12:36:14.406Z,49.90
2018-05-23T12:41:16.261Z,50.60
2018-05-23T12:43:43.790Z,51.20
2018-05-23T12:46:11.289Z,51.30
2018-05-23T12:48:38.804Z,51.50
2018-05-23T12:51:06.324Z,51.70
2018-05-23T12:53:34.632Z,51.80
2018-05-23T12:56:02.145Z,51.70
2018-05-23T12:58:29.677Z,51.90
2018-05-23T13:00:57.269Z,51.60
2018-05-23T13:03:24.787Z,51.60
2018-05-23T13:05:52.302Z,51.60
2018-05-23T13:08:20.645Z,52.20
2018-05-23T13:10:48.159Z,52.20
2018-05-23T13:13:15.673Z,52.30
2018-05-23T13:15:43.198Z,52.50
2018-05-23T13:18:10.714Z,53.10
2018-05-23T13:20:38.994Z,53.80
2018-05-23T13:23:07.266Z,54.20
2018-05-23T13:25:35.545Z,54.80
2018-05-23T13:28:03.828Z,55.40
2018-05-23T13:30:32.105Z,55.90
2018-05-23T13:32:59.657Z,55.80
2018-05-23T13:35:27.925Z,55.00
2018-05-23T13:37:56.213Z,55.80
2018-05-23T13:40:24.495Z,56.70
2018-05-23T13:42:52.773Z,56.10
2018-05-23T13:45:21.059Z,55.40
2018-05-23T13:47:48.581Z,55.30
2018-05-23T13:50:16.189Z,55.20
2018-05-23T13:52:43.627Z,56.00
2018-05-23T13:55:11.906Z,54.10
2018-05-23T13:57:39.430Z,54.10
2018-05-23T14:00:06.938Z,52.40
2018-05-23T14:02:34.450Z,51.10
2018-05-23T14:05:01.963Z,51.30
2018-05-23T14:07:29.481Z,49.10
2018-05-23T14:09:57.757Z,47.30
2018-05-23T14:12:26.034Z,44.30
2018-05-23T14:14:54.314Z,43.80
2018-05-23T14:17:22.592Z,43.50
2018-05-23T14:19:50.889Z,41.20
2018-05-23T14:22:18.570Z,41.10
2018-05-23T14:24:46.098Z,40.80
2018-05-23T14:27:14.378Z,42.70
2018-05-23T14:29:41.893Z,42.70
2018-05-23T14:32:09.414Z,42.60
2018-05-23T14:34:36.917Z,43.40
2018-05-23T14:37:04.437Z,43.60
2018-05-23T14:39:31.941Z,44.00
2018-05-23T14:41:59.526Z,45.20
2018-05-23T14:44:27.815Z,45.80
2018-05-23T14:46:55.347Z,45.70
2018-05-23T14:49:23.633Z,46.60
2018-05-23T14:51:51.914Z,48.60
2018-05-23T14:54:20.207Z,49.20
2018-05-23T14:56:47.727Z,49.20
2018-05-23T14:59:15.253Z,48.80
2018-05-23T15:01:42.769Z,49.50
2018-05-23T15:04:11.064Z,50.60
2018-05-23T15:06:38.582Z,50.60
2018-05-23T15:09:06.102Z,50.70
2018-05-23T15:11:33.621Z,50.70
2018-05-23T15:14:01.906Z,50.80
2018-05-23T15:16:29.440Z,50.80
2018-05-23T15:18:57.018Z,50.40
2018-05-23T15:21:25.297Z,51.20
2018-05-23T15:23:53.588Z,50.80
2018-05-23T15:26:21.108Z,50.80
2018-05-23T15:28:48.622Z,49.50
2018-05-23T15:31:16.307Z,49.20
2018-05-23T15:33:43.769Z,48.50
2018-05-23T15:36:11.285Z,47.80
2018-05-23T15:38:38.794Z,47.30
2018-05-23T15:41:06.313Z,46.90
2018-05-23T15:43:33.835Z,46.70
2018-05-23T15:46:02.101Z,47.90
2018-05-23T15:48:29.613Z,47.80
2018-05-23T15:50:57.159Z,49.20
2018-05-23T15:53:24.677Z,49.30
2018-05-23T15:55:52.198Z,49.60
2018-05-23T15:58:19.709Z,50.10
2018-05-23T16:00:47.992Z,51.10
2018-05-23T16:03:16.270Z,50.80
2018-05-23T16:05:43.794Z,50.70
2018-05-23T16:08:11.310Z,51.00
2018-05-23T16:10:38.831Z,51.30
2018-05-23T16:13:07.132Z,51.80
2018-05-23T16:15:34.657Z,51.70
2018-05-23T16:18:02.173Z,52.20
2018-05-23T16:20:29.725Z,52.60
2018-05-23T16:22:57.229Z,53.50
2018-05-23T16:25:24.747Z,54.10
2018-05-23T16:27:52.265Z,54.40
2018-05-23T16:30:20.553Z,53.60
2018-05-23T16:32:48.066Z,53.60
2018-05-23T16:35:15.605Z,53.30
2018-05-23T16:37:43.121Z,53.60
2018-05-23T16:40:11.398Z,53.90
2018-05-23T16:42:39.687Z,53.80
2018-05-23T16:45:07.219Z,53.80
2018-05-23T16:47:35.505Z,54.40
2018-05-23T16:50:03.783Z,54.30
2018-05-23T16:52:32.066Z,54.40
2018-05-23T16:55:00.345Z,55.00
2018-05-23T16:57:28.634Z,55.60
2018-05-23T16:59:56.153Z,55.70
2018-05-23T17:02:23.684Z,56.20
2018-05-23T17:04:51.201Z,55.80
2018-05-23T17:07:19.491Z,57.00
2018-05-23T17:09:47.026Z,57.00
2018-05-23T17:12:15.301Z,57.60
2018-05-23T17:14:43.586Z,58.10
2018-05-23T17:17:11.869Z,58.60
2018-05-23T17:19:39.384Z,58.60
2018-05-23T17:22:06.910Z,59.30
2018-05-23T17:24:34.421Z,59.40
2018-05-23T17:27:01.933Z,59.20
2018-05-23T17:29:29.455Z,59.20
2018-05-23T17:31:57.733Z,59.70
2018-05-23T17:34:26.017Z,60.40
2018-05-23T17:36:53.529Z,60.30
2018-05-23T17:39:21.051Z,60.40
2018-05-23T17:41:48.569Z,60.40
2018-05-23T17:44:16.858Z,60.80
2018-05-23T17:46:45.142Z,60.50
2018-05-23T17:49:12.653Z,60.40
2018-05-23T17:51:40.170Z,59.90
2018-05-23T17:54:07.693Z,59.50
2018-05-23T17:56:35.218Z,59.10
2018-05-23T17:59:02.734Z,59.10
2018-05-23T18:01:31.021Z,59.50
2018-05-23T18:03:58.533Z,59.50
2018-05-23T18:06:26.094Z,59.70
2018-05-23T18:08:53.593Z,59.90
2018-05-23T18:11:21.137Z,60.00
2018-05-23T18:13:49.416Z,60.00
2018-05-23T18:16:17.699Z,60.10
2018-05-23T18:18:45.984Z,60.40
2018-05-23T18:21:13.533Z,60.40
2018-05-23T18:23:41.840Z,61.30
2018-05-23T18:26:09.361Z,61.20
2018-05-23T18:28:36.889Z,61.40
2018-05-23T18:31:04.427Z,61.70
2018-05-23T18:33:31.938Z,61.80
2018-05-23T18:36:00.261Z,62.30
2018-05-23T18:38:27.794Z,62.20
2018-05-23T18:40:55.330Z,62.40
2018-05-23T18:43:23.729Z,63.50
2018-05-23T18:45:51.161Z,63.50
2018-05-23T18:48:19.470Z,64.00
2018-05-23T18:50:46.985Z,63.80
2018-05-23T18:53:14.509Z,65.00
2018-05-23T18:55:42.029Z,64.30
2018-05-23T18:58:10.342Z,64.40
2018-05-23T19:00:37.891Z,64.40
2018-05-23T19:03:05.398Z,64.50
2018-05-23T19:05:32.929Z,64.60
2018-05-23T19:08:00.455Z,64.90
2018-05-23T19:10:27.980Z,65.30
2018-05-23T19:12:55.498Z,65.80
2018-05-23T19:15:23.033Z,66.50
2018-05-23T19:17:50.557Z,66.80
2018-05-23T19:20:18.082Z,67.30
2018-05-23T19:22:45.632Z,67.60
2018-05-23T19:25:13.165Z,68.20
2018-05-23T19:27:40.677Z,68.40
2018-05-23T19:30:08.202Z,68.50
2018-05-23T19:32:35.737Z,68.60
2018-05-23T19:35:04.033Z,69.70
2018-05-23T19:37:31.566Z,69.80
2018-05-23T19:39:59.849Z,70.80
2018-05-23T19:42:28.144Z,71.40
2018-05-23T19:44:55.665Z,71.30
2018-05-23T19:47:23.279Z,71.50
2018-05-23T19:49:50.742Z,71.70
2018-05-23T19:52:18.290Z,72.20
2018-05-23T19:54:45.817Z,72.80
2018-05-23T19:57:14.105Z,73.30
2018-05-23T19:59:41.633Z,73.30
2018-05-23T20:02:09.173Z,73.80
2018-05-23T20:04:36.708Z,74.20
2018-05-23T20:07:04.235Z,74.30
2018-05-23T20:09:31.762Z,74.30
2018-05-23T20:11:59.323Z,74.40
2018-05-23T20:14:26.853Z,74.50
2018-05-23T20:16:54.409Z,74.50
2018-05-23T20:19:21.932Z,74.60
2018-05-23T20:21:50.208Z,75.00
2018-05-23T20:24:19.664Z,75.10
2018-05-23T20:26:47.181Z,75.10
2018-05-23T20:29:14.740Z,75.10
2018-05-23T20:31:43.046Z,74.80
2018-05-23T20:34:10.569Z,74.70
2018-05-23T20:36:38.085Z,74.80
2018-05-23T20:39:06.401Z,76.10
2018-05-23T20:41:34.681Z,75.50
2018-05-23T20:44:02.954Z,75.30
2018-05-23T20:46:31.233Z,75.50
2018-05-23T20:48:58.762Z,75.50
2018-05-23T20:51:26.287Z,76.20
2018-05-23T20:53:53.805Z,76.70
2018-05-23T20:56:22.086Z,77.60
2018-05-23T20:58:49.642Z,77.60
2018-05-23T21:01:17.153Z,78.00
2018-05-23T21:03:44.653Z,78.30
2018-05-23T21:06:12.941Z,78.50
2018-05-23T21:08:40.453Z,78.40
2018-05-23T21:11:07.981Z,78.50
2018-05-23T21:13:35.493Z,78.60
2018-05-23T21:16:03.777Z,78.80
2018-05-23T21:18:32.061Z,79.10
2018-05-23T21:21:00.349Z,79.50
2018-05-23T21:23:27.867Z,79.50
2018-05-23T21:25:55.466Z,79.70
2018-05-23T21:28:22.977Z,79.80
2018-05-23T21:30:50.495Z,79.80
2018-05-23T21:33:18.008Z,79.90
2018-05-23T21:35:45.526Z,80.10
2018-05-23T21:38:13.038Z,80.40
2018-05-23T21:40:41.338Z,80.70
2018-05-23T21:43:08.851Z,80.70
2018-05-23T21:45:36.370Z,80.70
2018-05-23T21:48:03.882Z,80.70
2018-05-23T21:50:31.397Z,80.90
2018-05-23T21:52:58.913Z,81.30
2018-05-23T21:55:27.197Z,81.80
2018-05-23T21:57:55.499Z,82.00
2018-05-23T22:00:23.014Z,81.90
2018-05-23T22:02:50.534Z,82.10
2018-05-23T22:05:18.057Z,82.20
2018-05-23T22:07:45.610Z,82.30
2018-05-23T22:10:13.895Z,83.10
2018-05-23T22:12:42.177Z,83.50
2018-05-23T22:15:09.693Z,83.50
2018-05-23T22:17:37.209Z,83.60
2018-05-23T22:20:04.725Z,83.80
2018-05-23T22:22:33.005Z,84.30
2018-05-23T22:25:01.285Z,84.10
2018-05-23T22:27:29.569Z,84.50
2018-05-23T22:29:57.866Z,85.10
2018-05-23T22:32:25.381Z,85.10
2018-05-23T22:34:52.889Z,85.50
2018-05-23T22:37:20.422Z,85.80
2018-05-23T22:39:48.776Z,86.00
2018-05-23T22:42:16.221Z,86.00
2018-05-23T22:44:43.728Z,85.90
2018-05-23T22:47:11.262Z,85.70
2018-05-23T22:49:38.775Z,85.80
2018-05-23T22:52:06.286Z,86.00
2018-05-23T22:54:34.571Z,86.10
2018-05-23T22:57:02.854Z,86.20
2018-05-23T22:59:30.369Z,86.20
2018-05-23T23:01:57.882Z,86.40
2018-05-23T23:04:25.419Z,86.50
2018-05-23T23:06:53.720Z,86.90
2018-05-23T23:09:21.226Z,86.90
2018-05-23T23:11:48.738Z,87.00
2018-05-23T23:14:16.266Z,86.90
2018-05-23T23:16:44.550Z,87.10
2018-05-23T23:19:12.841Z,88.00
2018-05-23T23:21:40.357Z,87.20
2018-05-23T23:24:09.378Z,87.40
2018-05-23T23:26:37.657Z,87.80
2018-05-23T23:29:05.937Z,88.00
2018-05-23T23:31:34.226Z,87.90
2018-05-23T23:34:01.754Z,87.90
2018-05-23T23:36:30.029Z,87.40
2018-05-23T23:38:57.549Z,87.40
2018-05-23T23:41:25.076Z,87.20
2018-05-23T23:43:52.594Z,87.30
2018-05-23T23:46:20.949Z,87.90
2018-05-23T23:48:49.177Z,88.30
2018-05-23T23:51:17.463Z,87.40
2018-05-23T23:53:44.974Z,87.40
2018-05-23T23:56:12.498Z,87.10
2018-05-23T23:58:40.010Z,87.10
